sensor_id;sensor_type;location;lat;lon;timestamp;pressure;altitude;pressure_sealevel;temperature
67509;BMP280;54354;44.724;11.284;2022-09-03T00:00:06;101399.63;;;27.74
67509;BMP280;54354;44.724;11.284;2022-09-03T00:02:43;101402.19;;;27.66
67509;BMP280;54354;44.724;11.284;2022-09-03T00:05:25;101395.59;;;27.62
67509;BMP280;54354;44.724;11.284;2022-09-03T00:08:04;101397.09;;;27.57
67509;BMP280;54354;44.724;11.284;2022-09-03T00:10:45;101399.41;;;27.53
67509;BMP280;54354;44.724;11.284;2022-09-03T00:13:19;101401.97;;;27.46
67509;BMP280;54354;44.724;11.284;2022-09-03T00:15:47;101403.94;;;27.45
67509;BMP280;54354;44.724;11.284;2022-09-03T00:18:20;101395.13;;;27.39
67509;BMP280;54354;44.724;11.284;2022-09-03T00:20:51;101400.56;;;27.39
67509;BMP280;54354;44.724;11.284;2022-09-03T00:23:26;101394.91;;;27.37
67509;BMP280;54354;44.724;11.284;2022-09-03T00:29:12;101414.34;;;27.47
67509;BMP280;54354;44.724;11.284;2022-09-03T00:31:37;101407.41;;;27.46
67509;BMP280;54354;44.724;11.284;2022-09-03T00:34:25;101402.25;;;27.42
67509;BMP280;54354;44.724;11.284;2022-09-03T00:36:52;101399.59;;;27.36
67509;BMP280;54354;44.724;11.284;2022-09-03T00:39:20;101407.09;;;27.30
67509;BMP280;54354;44.724;11.284;2022-09-03T00:50:25;101412.53;;;27.30
67509;BMP280;54354;44.724;11.284;2022-09-03T00:53:06;101423.34;;;27.36
67509;BMP280;54354;44.724;11.284;2022-09-03T01:01:21;101428.50;;;27.40
67509;BMP280;54354;44.724;11.284;2022-09-03T01:04:00;101423.78;;;27.40
67509;BMP280;54354;44.724;11.284;2022-09-03T01:06:44;101435.84;;;27.45
67509;BMP280;54354;44.724;11.284;2022-09-03T01:26:13;101445.63;;;27.34
67509;BMP280;54354;44.724;11.284;2022-09-03T01:28:36;101439.38;;;27.40
67509;BMP280;54354;44.724;11.284;2022-09-03T01:34:29;101427.31;;;27.35
67509;BMP280;54354;44.724;11.284;2022-09-03T01:45:17;101415.69;;;27.34
67509;BMP280;54354;44.724;11.284;2022-09-03T01:53:09;101428.75;;;27.17
67509;BMP280;54354;44.724;11.284;2022-09-03T01:55:59;101432.69;;;27.16
67509;BMP280;54354;44.724;11.284;2022-09-03T01:58:36;101430.94;;;27.19
67509;BMP280;54354;44.724;11.284;2022-09-03T02:01:10;101429.72;;;27.20
67509;BMP280;54354;44.724;11.284;2022-09-03T02:03:40;101434.88;;;27.23
67509;BMP280;54354;44.724;11.284;2022-09-03T02:06:09;101437.59;;;27.23
67509;BMP280;54354;44.724;11.284;2022-09-03T02:08:35;101445.69;;;27.29
67509;BMP280;54354;44.724;11.284;2022-09-03T02:11:04;101443.97;;;27.26
67509;BMP280;54354;44.724;11.284;2022-09-03T02:13:37;101441.72;;;27.30
67509;BMP280;54354;44.724;11.284;2022-09-03T02:16:14;101433.03;;;27.31
67509;BMP280;54354;44.724;11.284;2022-09-03T02:18:44;101428.06;;;27.35
67509;BMP280;54354;44.724;11.284;2022-09-03T02:21:14;101423.63;;;27.32
67509;BMP280;54354;44.724;11.284;2022-09-03T02:23:41;101434.97;;;27.36
67509;BMP280;54354;44.724;11.284;2022-09-03T02:26:09;101430.84;;;27.30
67509;BMP280;54354;44.724;11.284;2022-09-03T02:28:36;101431.28;;;27.34
67509;BMP280;54354;44.724;11.284;2022-09-03T02:31:02;101427.16;;;27.27
67509;BMP280;54354;44.724;11.284;2022-09-03T02:33:37;101421.81;;;27.16
67509;BMP280;54354;44.724;11.284;2022-09-03T02:36:05;101415.94;;;27.12
67509;BMP280;54354;44.724;11.284;2022-09-03T02:38:31;101424.41;;;27.09
67509;BMP280;54354;44.724;11.284;2022-09-03T02:40:57;101417.75;;;27.04
67509;BMP280;54354;44.724;11.284;2022-09-03T02:43:47;101411.13;;;26.99
67509;BMP280;54354;44.724;11.284;2022-09-03T02:46:21;101406.53;;;26.89
67509;BMP280;54354;44.724;11.284;2022-09-03T02:48:47;101414.97;;;26.85
67509;BMP280;54354;44.724;11.284;2022-09-03T02:51:13;101417.75;;;26.80
67509;BMP280;54354;44.724;11.284;2022-09-03T02:53:38;101416.28;;;26.79
67509;BMP280;54354;44.724;11.284;2022-09-03T02:56:04;101413.84;;;26.75
67509;BMP280;54354;44.724;11.284;2022-09-03T02:58:30;101416.06;;;26.71
67509;BMP280;54354;44.724;11.284;2022-09-03T03:00:56;101421.78;;;26.67
67509;BMP280;54354;44.724;11.284;2022-09-03T03:03:22;101417.34;;;26.64
67509;BMP280;54354;44.724;11.284;2022-09-03T03:05:50;101409.50;;;26.61
67509;BMP280;54354;44.724;11.284;2022-09-03T03:08:17;101411.69;;;26.62
67509;BMP280;54354;44.724;11.284;2022-09-03T03:10:48;101413.41;;;26.65
67509;BMP280;54354;44.724;11.284;2022-09-03T03:13:15;101422.50;;;26.68
67509;BMP280;54354;44.724;11.284;2022-09-03T03:15:41;101424.78;;;26.64
67509;BMP280;54354;44.724;11.284;2022-09-03T03:18:07;101421.81;;;26.62
67509;BMP280;54354;44.724;11.284;2022-09-03T03:20:38;101420.81;;;26.65
67509;BMP280;54354;44.724;11.284;2022-09-03T03:23:04;101419.63;;;26.60
67509;BMP280;54354;44.724;11.284;2022-09-03T03:25:32;101422.38;;;26.55
67509;BMP280;54354;44.724;11.284;2022-09-03T03:27:57;101432.00;;;26.56
67509;BMP280;54354;44.724;11.284;2022-09-03T03:30:23;101431.78;;;26.54
67509;BMP280;54354;44.724;11.284;2022-09-03T03:32:49;101426.13;;;26.52
67509;BMP280;54354;44.724;11.284;2022-09-03T03:35:16;101434.50;;;26.48
67509;BMP280;54354;44.724;11.284;2022-09-03T03:37:42;101444.91;;;26.44
67509;BMP280;54354;44.724;11.284;2022-09-03T03:40:08;101450.13;;;26.42
67509;BMP280;54354;44.724;11.284;2022-09-03T03:42:33;101449.66;;;26.38
67509;BMP280;54354;44.724;11.284;2022-09-03T03:44:59;101446.97;;;26.32
67509;BMP280;54354;44.724;11.284;2022-09-03T03:47:29;101445.06;;;26.22
67509;BMP280;54354;44.724;11.284;2022-09-03T03:49:58;101445.84;;;26.17
67509;BMP280;54354;44.724;11.284;2022-09-03T03:52:24;101446.13;;;26.07
67509;BMP280;54354;44.724;11.284;2022-09-03T03:54:50;101445.91;;;26.00
67509;BMP280;54354;44.724;11.284;2022-09-03T03:57:17;101452.13;;;25.95
67509;BMP280;54354;44.724;11.284;2022-09-03T03:59:44;101443.75;;;25.93
67509;BMP280;54354;44.724;11.284;2022-09-03T04:02:10;101442.28;;;25.92
67509;BMP280;54354;44.724;11.284;2022-09-03T04:04:36;101449.63;;;25.91
67509;BMP280;54354;44.724;11.284;2022-09-03T04:07:02;101446.72;;;25.89
67509;BMP280;54354;44.724;11.284;2022-09-03T04:09:27;101452.63;;;25.88
67509;BMP280;54354;44.724;11.284;2022-09-03T04:11:53;101451.16;;;25.81
67509;BMP280;54354;44.724;11.284;2022-09-03T04:14:21;101449.72;;;25.74
67509;BMP280;54354;44.724;11.284;2022-09-03T04:16:46;101443.31;;;25.72
67509;BMP280;54354;44.724;11.284;2022-09-03T04:19:12;101451.22;;;25.70
67509;BMP280;54354;44.724;11.284;2022-09-03T04:21:38;101440.88;;;25.68
67509;BMP280;54354;44.724;11.284;2022-09-03T04:24:04;101441.09;;;25.65
67509;BMP280;54354;44.724;11.284;2022-09-03T04:26:31;101440.91;;;25.63
67509;BMP280;54354;44.724;11.284;2022-09-03T04:28:57;101446.31;;;25.63
67509;BMP280;54354;44.724;11.284;2022-09-03T04:31:23;101438.19;;;25.63
67509;BMP280;54354;44.724;11.284;2022-09-03T04:33:49;101439.66;;;25.64
67509;BMP280;54354;44.724;11.284;2022-09-03T04:36:20;101437.22;;;25.60
67509;BMP280;54354;44.724;11.284;2022-09-03T04:38:49;101432.25;;;25.59
67509;BMP280;54354;44.724;11.284;2022-09-03T04:41:19;101428.81;;;25.58
67509;BMP280;54354;44.724;11.284;2022-09-03T04:43:45;101432.22;;;25.64
67509;BMP280;54354;44.724;11.284;2022-09-03T04:46:13;101421.91;;;25.63
67509;BMP280;54354;44.724;11.284;2022-09-03T04:48:39;101434.25;;;25.64
67509;BMP280;54354;44.724;11.284;2022-09-03T04:51:10;101434.97;;;25.59
67509;BMP280;54354;44.724;11.284;2022-09-03T04:53:42;101438.66;;;25.61
67509;BMP280;54354;44.724;11.284;2022-09-03T04:56:18;101441.88;;;25.65
67509;BMP280;54354;44.724;11.284;2022-09-03T04:58:45;101438.41;;;25.70
67509;BMP280;54354;44.724;11.284;2022-09-03T05:01:15;101424.84;;;25.65
67509;BMP280;54354;44.724;11.284;2022-09-03T05:03:41;101422.84;;;25.71
67509;BMP280;54354;44.724;11.284;2022-09-03T05:06:07;101425.06;;;25.72
67509;BMP280;54354;44.724;11.284;2022-09-03T05:08:33;101414.47;;;25.74
67509;BMP280;54354;44.724;11.284;2022-09-03T05:11:02;101424.06;;;25.75
67509;BMP280;54354;44.724;11.284;2022-09-03T05:13:28;101436.63;;;25.78
67509;BMP280;54354;44.724;11.284;2022-09-03T05:16:00;101434.66;;;25.79
67509;BMP280;54354;44.724;11.284;2022-09-03T05:18:27;101438.34;;;25.87
67509;BMP280;54354;44.724;11.284;2022-09-03T05:21:07;101438.56;;;25.89
67509;BMP280;54354;44.724;11.284;2022-09-03T05:23:40;101436.38;;;26.29
67509;BMP280;54354;44.724;11.284;2022-09-03T05:26:09;101436.03;;;26.02
67509;BMP280;54354;44.724;11.284;2022-09-03T05:28:37;101440.75;;;25.96
67509;BMP280;54354;44.724;11.284;2022-09-03T05:31:05;101432.84;;;25.98
67509;BMP280;54354;44.724;11.284;2022-09-03T05:33:39;101425.94;;;25.97
67509;BMP280;54354;44.724;11.284;2022-09-03T05:36:07;101429.41;;;25.98
67509;BMP280;54354;44.724;11.284;2022-09-03T05:38:33;101439.53;;;25.97
67509;BMP280;54354;44.724;11.284;2022-09-03T05:41:00;101429.63;;;25.94
67509;BMP280;54354;44.724;11.284;2022-09-03T05:43:27;101437.06;;;25.94
67509;BMP280;54354;44.724;11.284;2022-09-03T05:46:01;101436.56;;;25.95
67509;BMP280;54354;44.724;11.284;2022-09-03T05:48:28;101423.47;;;25.99
67509;BMP280;54354;44.724;11.284;2022-09-03T05:51:13;101422.25;;;25.95
67509;BMP280;54354;44.724;11.284;2022-09-03T05:53:44;101423.25;;;25.97
67509;BMP280;54354;44.724;11.284;2022-09-03T05:56:13;101416.84;;;25.95
67509;BMP280;54354;44.724;11.284;2022-09-03T05:58:41;101423.25;;;25.97
67509;BMP280;54354;44.724;11.284;2022-09-03T06:01:12;101422.00;;;26.04
67509;BMP280;54354;44.724;11.284;2022-09-03T06:03:39;101427.63;;;26.06
67509;BMP280;54354;44.724;11.284;2022-09-03T06:06:05;101429.38;;;26.03
67509;BMP280;54354;44.724;11.284;2022-09-03T06:08:31;101434.78;;;26.03
67509;BMP280;54354;44.724;11.284;2022-09-03T06:10:58;101431.59;;;26.05
67509;BMP280;54354;44.724;11.284;2022-09-03T06:13:24;101440.16;;;26.15
67509;BMP280;54354;44.724;11.284;2022-09-03T06:15:49;101436.94;;;26.22
67509;BMP280;54354;44.724;11.284;2022-09-03T06:18:15;101440.59;;;26.24
67509;BMP280;54354;44.724;11.284;2022-09-03T06:20:40;101444.53;;;26.29
67509;BMP280;54354;44.724;11.284;2022-09-03T06:23:06;101453.66;;;26.31
67509;BMP280;54354;44.724;11.284;2022-09-03T06:25:31;101456.56;;;26.39
67509;BMP280;54354;44.724;11.284;2022-09-03T06:27:57;101458.03;;;26.46
67509;BMP280;54354;44.724;11.284;2022-09-03T06:30:23;101467.84;;;26.54
67509;BMP280;54354;44.724;11.284;2022-09-03T06:32:50;101473.44;;;26.62
67509;BMP280;54354;44.724;11.284;2022-09-03T06:35:16;101473.38;;;26.73
67509;BMP280;54354;44.724;11.284;2022-09-03T06:37:42;101471.59;;;26.81
67509;BMP280;54354;44.724;11.284;2022-09-03T06:40:09;101478.22;;;26.86
67509;BMP280;54354;44.724;11.284;2022-09-03T06:42:40;101486.09;;;26.89
67509;BMP280;54354;44.724;11.284;2022-09-03T06:45:07;101479.31;;;27.01
67509;BMP280;54354;44.724;11.284;2022-09-03T06:47:33;101469.63;;;27.06
67509;BMP280;54354;44.724;11.284;2022-09-03T06:49:59;101462.19;;;27.12
67509;BMP280;54354;44.724;11.284;2022-09-03T06:52:27;101457.28;;;27.29
67509;BMP280;54354;44.724;11.284;2022-09-03T06:54:52;101459.50;;;27.55
67509;BMP280;54354;44.724;11.284;2022-09-03T06:57:18;101452.66;;;27.86
67509;BMP280;54354;44.724;11.284;2022-09-03T06:59:43;101447.38;;;28.26
67509;BMP280;54354;44.724;11.284;2022-09-03T07:02:09;101442.91;;;28.74
67509;BMP280;54354;44.724;11.284;2022-09-03T07:04:35;101437.78;;;29.23
67509;BMP280;54354;44.724;11.284;2022-09-03T07:07:00;101452.75;;;29.56
67509;BMP280;54354;44.724;11.284;2022-09-03T07:09:27;101449.78;;;29.67
67509;BMP280;54354;44.724;11.284;2022-09-03T07:11:53;101452.69;;;29.69
67509;BMP280;54354;44.724;11.284;2022-09-03T07:14:20;101444.13;;;29.65
67509;BMP280;54354;44.724;11.284;2022-09-03T07:16:48;101437.81;;;29.70
67509;BMP280;54354;44.724;11.284;2022-09-03T07:19:14;101447.22;;;29.82
67509;BMP280;54354;44.724;11.284;2022-09-03T07:21:40;101446.50;;;29.82
67509;BMP280;54354;44.724;11.284;2022-09-03T07:24:07;101450.81;;;29.77
67509;BMP280;54354;44.724;11.284;2022-09-03T07:26:40;101452.31;;;29.65
67509;BMP280;54354;44.724;11.284;2022-09-03T07:29:10;101456.41;;;29.58
67509;BMP280;54354;44.724;11.284;2022-09-03T07:31:39;101452.47;;;29.46
67509;BMP280;54354;44.724;11.284;2022-09-03T07:34:10;101465.06;;;29.36
67509;BMP280;54354;44.724;11.284;2022-09-03T07:36:42;101460.03;;;29.27
67509;BMP280;54354;44.724;11.284;2022-09-03T07:39:09;101469.06;;;29.22
67509;BMP280;54354;44.724;11.284;2022-09-03T07:41:35;101470.63;;;29.17
67509;BMP280;54354;44.724;11.284;2022-09-03T07:44:02;101474.97;;;29.13
67509;BMP280;54354;44.724;11.284;2022-09-03T07:46:31;101472.53;;;29.09
67509;BMP280;54354;44.724;11.284;2022-09-03T07:48:59;101481.47;;;29.10
67509;BMP280;54354;44.724;11.284;2022-09-03T07:51:28;101479.97;;;29.09
67509;BMP280;54354;44.724;11.284;2022-09-03T07:53:56;101477.03;;;29.07
67509;BMP280;54354;44.724;11.284;2022-09-03T07:56:23;101484.91;;;29.10
67509;BMP280;54354;44.724;11.284;2022-09-03T07:58:49;101481.75;;;29.06
67509;BMP280;54354;44.724;11.284;2022-09-03T08:01:17;101486.78;;;29.02
67509;BMP280;54354;44.724;11.284;2022-09-03T08:03:45;101485.53;;;29.03
67509;BMP280;54354;44.724;11.284;2022-09-03T08:06:12;101477.75;;;29.07
67509;BMP280;54354;44.724;11.284;2022-09-03T08:08:38;101497.84;;;29.10
67509;BMP280;54354;44.724;11.284;2022-09-03T08:13:37;101499.06;;;29.22
67509;BMP280;54354;44.724;11.284;2022-09-03T08:16:03;101513.13;;;29.39
67509;BMP280;54354;44.724;11.284;2022-09-03T08:18:30;101505.03;;;29.60
67509;BMP280;54354;44.724;11.284;2022-09-03T08:21:01;101498.53;;;29.84
67509;BMP280;54354;44.724;11.284;2022-09-03T08:23:28;101511.13;;;30.00
67509;BMP280;54354;44.724;11.284;2022-09-03T08:26:00;101501.44;;;30.12
67509;BMP280;54354;44.724;11.284;2022-09-03T08:28:26;101495.75;;;30.31
67509;BMP280;54354;44.724;11.284;2022-09-03T08:30:52;101502.03;;;30.39
67509;BMP280;54354;44.724;11.284;2022-09-03T08:33:18;101500.47;;;30.44
67509;BMP280;54354;44.724;11.284;2022-09-03T08:38:31;101511.69;;;30.40
67509;BMP280;54354;44.724;11.284;2022-09-03T08:41:09;101511.28;;;30.36
67509;BMP280;54354;44.724;11.284;2022-09-03T08:46:20;101513.34;;;30.43
67509;BMP280;54354;44.724;11.284;2022-09-03T08:48:50;101503.56;;;30.48
67509;BMP280;54354;44.724;11.284;2022-09-03T08:51:19;101506.69;;;30.52
67509;BMP280;54354;44.724;11.284;2022-09-03T08:53:50;101499.50;;;30.62
67509;BMP280;54354;44.724;11.284;2022-09-03T08:56:30;101499.38;;;30.75
67509;BMP280;54354;44.724;11.284;2022-09-03T08:58:56;101497.06;;;30.79
67509;BMP280;54354;44.724;11.284;2022-09-03T09:01:46;101513.13;;;30.83
67509;BMP280;54354;44.724;11.284;2022-09-03T09:07:49;101526.81;;;30.83
67509;BMP280;54354;44.724;11.284;2022-09-03T09:10:36;101527.19;;;30.87
67509;BMP280;54354;44.724;11.284;2022-09-03T09:18:24;101527.44;;;30.97
67509;BMP280;54354;44.724;11.284;2022-09-03T09:23:25;101530.56;;;31.01
67509;BMP280;54354;44.724;11.284;2022-09-03T09:25:53;101538.28;;;31.10
67509;BMP280;54354;44.724;11.284;2022-09-03T09:28:21;101539.22;;;31.12
67509;BMP280;54354;44.724;11.284;2022-09-03T09:30:49;101524.44;;;31.15
67509;BMP280;54354;44.724;11.284;2022-09-03T09:33:16;101515.72;;;31.17
67509;BMP280;54354;44.724;11.284;2022-09-03T09:35:42;101525.91;;;31.16
67509;BMP280;54354;44.724;11.284;2022-09-03T09:38:09;101522.66;;;31.18
67509;BMP280;54354;44.724;11.284;2022-09-03T09:40:37;101511.88;;;31.20
67509;BMP280;54354;44.724;11.284;2022-09-03T09:43:15;101509.34;;;31.22
67509;BMP280;54354;44.724;11.284;2022-09-03T09:45:47;101513.53;;;31.23
67509;BMP280;54354;44.724;11.284;2022-09-03T09:48:25;101509.84;;;31.20
67509;BMP280;54354;44.724;11.284;2022-09-03T09:51:11;101515.34;;;31.20
67509;BMP280;54354;44.724;11.284;2022-09-03T09:53:38;101520.63;;;31.18
67509;BMP280;54354;44.724;11.284;2022-09-03T09:56:04;101530.50;;;31.21
67509;BMP280;54354;44.724;11.284;2022-09-03T09:58:32;101520.28;;;31.22
67509;BMP280;54354;44.724;11.284;2022-09-03T10:01:01;101526.50;;;31.22
67509;BMP280;54354;44.724;11.284;2022-09-03T10:03:31;101525.19;;;31.23
67509;BMP280;54354;44.724;11.284;2022-09-03T10:06:05;101519.56;;;31.21
67509;BMP280;54354;44.724;11.284;2022-09-03T10:08:51;101516.25;;;31.23
67509;BMP280;54354;44.724;11.284;2022-09-03T10:11:19;101508.03;;;31.15
67509;BMP280;54354;44.724;11.284;2022-09-03T10:13:46;101509.28;;;31.14
67509;BMP280;54354;44.724;11.284;2022-09-03T10:16:28;101510.19;;;31.09
67509;BMP280;54354;44.724;11.284;2022-09-03T10:19:19;101505.66;;;31.12
67509;BMP280;54354;44.724;11.284;2022-09-03T10:22:02;101495.38;;;31.05
67509;BMP280;54354;44.724;11.284;2022-09-03T10:24:43;101490.47;;;31.03
67509;BMP280;54354;44.724;11.284;2022-09-03T10:27:13;101496.84;;;31.06
67509;BMP280;54354;44.724;11.284;2022-09-03T10:29:40;101503.44;;;31.10
67509;BMP280;54354;44.724;11.284;2022-09-03T10:35:29;101510.22;;;31.17
67509;BMP280;54354;44.724;11.284;2022-09-03T10:40:39;101501.25;;;31.09
67509;BMP280;54354;44.724;11.284;2022-09-03T10:43:22;101508.19;;;31.10
67509;BMP280;54354;44.724;11.284;2022-09-03T10:46:19;101511.84;;;31.12
67509;BMP280;54354;44.724;11.284;2022-09-03T10:51:39;101510.28;;;30.96
67509;BMP280;54354;44.724;11.284;2022-09-03T10:54:10;101515.03;;;30.95
67509;BMP280;54354;44.724;11.284;2022-09-03T10:59:31;101503.59;;;30.76
67509;BMP280;54354;44.724;11.284;2022-09-03T11:07:39;101511.75;;;30.69
67509;BMP280;54354;44.724;11.284;2022-09-03T11:20:28;101505.06;;;30.77
67509;BMP280;54354;44.724;11.284;2022-09-03T11:22:59;101506.50;;;30.78
67509;BMP280;54354;44.724;11.284;2022-09-03T11:25:33;101518.38;;;30.81
67509;BMP280;54354;44.724;11.284;2022-09-03T11:33:25;101516.66;;;30.91
67509;BMP280;54354;44.724;11.284;2022-09-03T11:35:56;101512.44;;;30.90
67509;BMP280;54354;44.724;11.284;2022-09-03T11:38:26;101513.94;;;30.99
67509;BMP280;54354;44.724;11.284;2022-09-03T11:41:09;101515.59;;;31.02
67509;BMP280;54354;44.724;11.284;2022-09-03T11:49:26;101509.69;;;31.18
67509;BMP280;54354;44.724;11.284;2022-09-03T11:51:42;101516.09;;;31.28
67509;BMP280;54354;44.724;11.284;2022-09-03T11:56:38;101511.41;;;31.37
67509;BMP280;54354;44.724;11.284;2022-09-03T12:10:37;101493.78;;;31.53
67509;BMP280;54354;44.724;11.284;2022-09-03T12:16:13;101492.88;;;31.58
67509;BMP280;54354;44.724;11.284;2022-09-03T12:18:42;101493.44;;;31.64
67509;BMP280;54354;44.724;11.284;2022-09-03T12:21:10;101486.88;;;31.67
67509;BMP280;54354;44.724;11.284;2022-09-03T12:23:47;101475.91;;;31.67
67509;BMP280;54354;44.724;11.284;2022-09-03T12:26:18;101483.59;;;31.76
67509;BMP280;54354;44.724;11.284;2022-09-03T12:28:49;101471.41;;;31.77
67509;BMP280;54354;44.724;11.284;2022-09-03T12:34:08;101470.84;;;31.86
67509;BMP280;54354;44.724;11.284;2022-09-03T12:36:46;101472.13;;;31.85
67509;BMP280;54354;44.724;11.284;2022-09-03T12:39:17;101476.53;;;31.88
67509;BMP280;54354;44.724;11.284;2022-09-03T12:47:20;101469.22;;;31.91
67509;BMP280;54354;44.724;11.284;2022-09-03T12:49:51;101463.38;;;31.87
67509;BMP280;54354;44.724;11.284;2022-09-03T12:52:36;101455.88;;;31.87
67509;BMP280;54354;44.724;11.284;2022-09-03T13:00:21;101440.91;;;31.88
67509;BMP280;54354;44.724;11.284;2022-09-03T13:02:52;101436.88;;;31.89
67509;BMP280;54354;44.724;11.284;2022-09-03T13:05:23;101427.56;;;31.85
67509;BMP280;54354;44.724;11.284;2022-09-03T13:07:54;101426.09;;;31.84
67509;BMP280;54354;44.724;11.284;2022-09-03T13:10:29;101428.13;;;31.83
67509;BMP280;54354;44.724;11.284;2022-09-03T13:13:01;101428.13;;;31.83
67509;BMP280;54354;44.724;11.284;2022-09-03T13:15:28;101432.50;;;31.86
67509;BMP280;54354;44.724;11.284;2022-09-03T13:18:21;101421.72;;;31.88
67509;BMP280;54354;44.724;11.284;2022-09-03T13:21:02;101433.78;;;31.93
67509;BMP280;54354;44.724;11.284;2022-09-03T13:23:56;101435.03;;;32.00
67509;BMP280;54354;44.724;11.284;2022-09-03T13:31:49;101412.25;;;32.05
67509;BMP280;54354;44.724;11.284;2022-09-03T13:34:30;101413.34;;;32.02
67509;BMP280;54354;44.724;11.284;2022-09-03T13:37:11;101405.59;;;32.38
67509;BMP280;54354;44.724;11.284;2022-09-03T13:39:50;101411.50;;;32.04
67509;BMP280;54354;44.724;11.284;2022-09-03T13:42:31;101417.88;;;31.91
67509;BMP280;54354;44.724;11.284;2022-09-03T13:47:50;101418.03;;;31.86
67509;BMP280;54354;44.724;11.284;2022-09-03T13:50:44;101403.81;;;31.87
67509;BMP280;54354;44.724;11.284;2022-09-03T13:53:21;101407.47;;;31.90
67509;BMP280;54354;44.724;11.284;2022-09-03T13:55:55;101406.22;;;31.91
67509;BMP280;54354;44.724;11.284;2022-09-03T13:58:36;101394.16;;;31.94
67509;BMP280;54354;44.724;11.284;2022-09-03T14:07:08;101393.03;;;32.12
67509;BMP280;54354;44.724;11.284;2022-09-03T14:10:17;101397.06;;;32.19
67509;BMP280;54354;44.724;11.284;2022-09-03T14:12:49;101397.59;;;32.17
67509;BMP280;54354;44.724;11.284;2022-09-03T14:15:32;101405.28;;;32.19
67509;BMP280;54354;44.724;11.284;2022-09-03T14:18:12;101397.06;;;32.19
67509;BMP280;54354;44.724;11.284;2022-09-03T14:20:43;101408.03;;;32.26
67509;BMP280;54354;44.724;11.284;2022-09-03T14:23:39;101394.88;;;32.25
67509;BMP280;54354;44.724;11.284;2022-09-03T14:26:16;101409.13;;;32.23
67509;BMP280;54354;44.724;11.284;2022-09-03T14:28:47;101398.16;;;32.23
67509;BMP280;54354;44.724;11.284;2022-09-03T14:39:53;101400.50;;;32.27
67509;BMP280;54354;44.724;11.284;2022-09-03T14:48:19;101391.34;;;32.32
67509;BMP280;54354;44.724;11.284;2022-09-03T14:53:49;101383.34;;;32.26
67509;BMP280;54354;44.724;11.284;2022-09-03T15:01:35;101378.22;;;32.23
67509;BMP280;54354;44.724;11.284;2022-09-03T15:06:42;101383.00;;;32.22
67509;BMP280;54354;44.724;11.284;2022-09-03T15:11:57;101376.59;;;32.12
67509;BMP280;54354;44.724;11.284;2022-09-03T15:15:07;101384.28;;;32.14
67509;BMP280;54354;44.724;11.284;2022-09-03T15:17:39;101374.22;;;32.16
67509;BMP280;54354;44.724;11.284;2022-09-03T15:28:47;101378.06;;;32.13
67509;BMP280;54354;44.724;11.284;2022-09-03T15:33:51;101372.41;;;32.11
67509;BMP280;54354;44.724;11.284;2022-09-03T15:36:23;101375.13;;;32.11
67509;BMP280;54354;44.724;11.284;2022-09-03T15:39:04;101381.19;;;32.10
67509;BMP280;54354;44.724;11.284;2022-09-03T15:44:16;101372.03;;;32.00
67509;BMP280;54354;44.724;11.284;2022-09-03T15:49:20;101366.03;;;31.93
67509;BMP280;54354;44.724;11.284;2022-09-03T15:52:07;101366.38;;;31.98
67509;BMP280;54354;44.724;11.284;2022-09-03T15:54:41;101372.78;;;31.92
67509;BMP280;54354;44.724;11.284;2022-09-03T15:57:12;101351.22;;;31.89
67509;BMP280;54354;44.724;11.284;2022-09-03T16:02:19;101377.53;;;31.84
67509;BMP280;54354;44.724;11.284;2022-09-03T16:12:57;101375.53;;;31.77
67509;BMP280;54354;44.724;11.284;2022-09-03T16:15:27;101376.97;;;31.78
67509;BMP280;54354;44.724;11.284;2022-09-03T16:18:01;101381.53;;;31.76
67509;BMP280;54354;44.724;11.284;2022-09-03T16:20:45;101388.31;;;31.75
67509;BMP280;54354;44.724;11.284;2022-09-03T16:23:16;101396.69;;;31.77
67509;BMP280;54354;44.724;11.284;2022-09-03T16:28:17;101397.81;;;31.66
67509;BMP280;54354;44.724;11.284;2022-09-03T16:31:06;101394.84;;;31.64
67509;BMP280;54354;44.724;11.284;2022-09-03T16:36:28;101387.19;;;31.63
67509;BMP280;54354;44.724;11.284;2022-09-03T16:42:10;101393.22;;;31.61
67509;BMP280;54354;44.724;11.284;2022-09-03T16:50:41;101414.38;;;31.53
67509;BMP280;54354;44.724;11.284;2022-09-03T16:53:15;101404.88;;;31.46
67509;BMP280;54354;44.724;11.284;2022-09-03T16:58:47;101415.28;;;31.48
67509;BMP280;54354;44.724;11.284;2022-09-03T17:15:12;101411.03;;;31.24
67509;BMP280;54354;44.724;11.284;2022-09-03T17:18:05;101413.94;;;31.26
67509;BMP280;54354;44.724;11.284;2022-09-03T17:31:47;101410.00;;;30.99
67509;BMP280;54354;44.724;11.284;2022-09-03T17:40:17;101413.38;;;30.84
67509;BMP280;54354;44.724;11.284;2022-09-03T17:49:05;101421.53;;;30.69
67509;BMP280;54354;44.724;11.284;2022-09-03T17:54:06;101428.06;;;30.66
67509;BMP280;54354;44.724;11.284;2022-09-03T17:59:18;101437.09;;;30.53
67509;BMP280;54354;44.724;11.284;2022-09-03T18:02:23;101437.41;;;30.49
67509;BMP280;54354;44.724;11.284;2022-09-03T18:05:02;101435.69;;;30.39
67509;BMP280;54354;44.724;11.284;2022-09-03T18:07:41;101445.09;;;30.30
67509;BMP280;54354;44.724;11.284;2022-09-03T18:12:46;101447.59;;;30.20
67509;BMP280;54354;44.724;11.284;2022-09-03T18:15:28;101455.22;;;30.22
67509;BMP280;54354;44.724;11.284;2022-09-03T18:18:28;101456.41;;;30.26
67509;BMP280;54354;44.724;11.284;2022-09-03T18:21:04;101462.69;;;30.21
67509;BMP280;54354;44.724;11.284;2022-09-03T18:24:01;101478.75;;;30.25
67509;BMP280;54354;44.724;11.284;2022-09-03T18:27:03;101471.94;;;30.18
67509;BMP280;54354;44.724;11.284;2022-09-03T18:30:07;101472.91;;;30.21
67509;BMP280;54354;44.724;11.284;2022-09-03T18:32:52;101487.66;;;30.18
67509;BMP280;54354;44.724;11.284;2022-09-03T18:35:36;101485.41;;;30.16
67509;BMP280;54354;44.724;11.284;2022-09-03T18:38:29;101480.63;;;30.09
67509;BMP280;54354;44.724;11.284;2022-09-03T18:44:53;101487.78;;;30.12